sensor_id;sensor_type;location;lat;lon;timestamp;P1;durP1;ratioP1;P2;durP2;ratioP2
4084;SDS011;2057;50.858;6.572;2023-04-08T00:02:08;32.43;;;18.03;;
4084;SDS011;2057;50.858;6.572;2023-04-08T00:04:33;31.07;;;17.83;;
4084;SDS011;2057;50.858;6.572;2023-04-08T00:06:58;35.47;;;18.27;;
4084;SDS011;2057;50.858;6.572;2023-04-08T00:09:24;36.50;;;18.63;;
4084;SDS011;2057;50.858;6.572;2023-04-08T00:11:49;27.70;;;18.73;;
4084;SDS011;2057;50.858;6.572;2023-04-08T00:14:14;37.20;;;19.00;;
4084;SDS011;2057;50.858;6.572;2023-04-08T00:16:40;37.37;;;20.87;;
4084;SDS011;2057;50.858;6.572;2023-04-08T00:19:05;29.60;;;20.40;;
4084;SDS011;2057;50.858;6.572;2023-04-08T00:21:31;38.30;;;21.20;;
4084;SDS011;2057;50.858;6.572;2023-04-08T00:23:56;38.43;;;18.90;;
4084;SDS011;2057;50.858;6.572;2023-04-08T00:26:21;42.40;;;20.43;;
4084;SDS011;2057;50.858;6.572;2023-04-08T00:28:47;46.17;;;21.23;;
4084;SDS011;2057;50.858;6.572;2023-04-08T00:31:12;27.63;;;19.70;;
4084;SDS011;2057;50.858;6.572;2023-04-08T00:33:38;38.00;;;20.43;;
4084;SDS011;2057;50.858;6.572;2023-04-08T00:36:03;55.33;;;21.97;;
4084;SDS011;2057;50.858;6.572;2023-04-08T00:38:29;42.53;;;24.40;;
4084;SDS011;2057;50.858;6.572;2023-04-08T00:40:54;40.13;;;21.40;;
4084;SDS011;2057;50.858;6.572;2023-04-08T00:43:20;40.17;;;22.50;;
4084;SDS011;2057;50.858;6.572;2023-04-08T00:45:46;44.93;;;21.77;;
4084;SDS011;2057;50.858;6.572;2023-04-08T00:48:12;50.07;;;23.33;;
4084;SDS011;2057;50.858;6.572;2023-04-08T00:50:37;35.77;;;21.60;;
4084;SDS011;2057;50.858;6.572;2023-04-08T00:53:03;35.77;;;21.20;;
4084;SDS011;2057;50.858;6.572;2023-04-08T00:55:28;48.70;;;23.47;;
4084;SDS011;2057;50.858;6.572;2023-04-08T00:57:54;44.50;;;22.87;;
4084;SDS011;2057;50.858;6.572;2023-04-08T01:00:20;41.87;;;21.73;;
4084;SDS011;2057;50.858;6.572;2023-04-08T01:02:57;39.13;;;22.10;;
4084;SDS011;2057;50.858;6.572;2023-04-08T01:05:34;40.83;;;22.80;;
4084;SDS011;2057;50.858;6.572;2023-04-08T01:08:04;41.17;;;23.80;;
4084;SDS011;2057;50.858;6.572;2023-04-08T01:10:32;41.20;;;22.80;;
4084;SDS011;2057;50.858;6.572;2023-04-08T01:13:00;40.20;;;21.23;;
4084;SDS011;2057;50.858;6.572;2023-04-08T01:15:30;42.87;;;23.43;;
4084;SDS011;2057;50.858;6.572;2023-04-08T01:18:00;46.73;;;25.33;;
4084;SDS011;2057;50.858;6.572;2023-04-08T01:20:30;37.33;;;23.40;;
4084;SDS011;2057;50.858;6.572;2023-04-08T01:25:44;43.60;;;23.50;;
4084;SDS011;2057;50.858;6.572;2023-04-08T01:28:20;47.00;;;23.17;;
4084;SDS011;2057;50.858;6.572;2023-04-08T01:30:48;33.97;;;23.40;;
4084;SDS011;2057;50.858;6.572;2023-04-08T01:33:15;37.97;;;21.70;;
4084;SDS011;2057;50.858;6.572;2023-04-08T01:35:43;41.17;;;23.30;;
4084;SDS011;2057;50.858;6.572;2023-04-08T01:38:10;39.50;;;21.10;;
4084;SDS011;2057;50.858;6.572;2023-04-08T01:40:42;42.60;;;25.67;;
4084;SDS011;2057;50.858;6.572;2023-04-08T01:43:09;41.20;;;24.60;;
4084;SDS011;2057;50.858;6.572;2023-04-08T01:45:37;47.80;;;22.43;;
4084;SDS011;2057;50.858;6.572;2023-04-08T01:48:02;33.17;;;21.40;;
4084;SDS011;2057;50.858;6.572;2023-04-08T01:50:29;35.73;;;21.53;;
4084;SDS011;2057;50.858;6.572;2023-04-08T01:52:55;42.53;;;22.67;;
4084;SDS011;2057;50.858;6.572;2023-04-08T01:55:24;45.60;;;22.47;;
4084;SDS011;2057;50.858;6.572;2023-04-08T01:57:51;56.63;;;22.90;;
4084;SDS011;2057;50.858;6.572;2023-04-08T02:00:19;34.43;;;23.00;;
4084;SDS011;2057;50.858;6.572;2023-04-08T02:02:47;39.93;;;22.60;;
4084;SDS011;2057;50.858;6.572;2023-04-08T02:05:13;35.90;;;24.40;;
4084;SDS011;2057;50.858;6.572;2023-04-08T02:07:39;56.73;;;24.27;;
4084;SDS011;2057;50.858;6.572;2023-04-08T02:10:04;34.37;;;21.73;;
4084;SDS011;2057;50.858;6.572;2023-04-08T02:12:31;40.77;;;22.27;;
4084;SDS011;2057;50.858;6.572;2023-04-08T02:14:57;53.93;;;23.83;;
4084;SDS011;2057;50.858;6.572;2023-04-08T02:22:18;42.70;;;24.93;;
4084;SDS011;2057;50.858;6.572;2023-04-08T02:24:49;41.73;;;24.23;;
4084;SDS011;2057;50.858;6.572;2023-04-08T02:27:15;35.73;;;23.57;;
4084;SDS011;2057;50.858;6.572;2023-04-08T02:29:42;39.07;;;24.97;;
4084;SDS011;2057;50.858;6.572;2023-04-08T02:32:09;41.77;;;24.27;;
4084;SDS011;2057;50.858;6.572;2023-04-08T02:34:36;56.23;;;24.70;;
4084;SDS011;2057;50.858;6.572;2023-04-08T02:37:07;41.10;;;25.30;;
4084;SDS011;2057;50.858;6.572;2023-04-08T02:39:33;53.60;;;26.97;;
4084;SDS011;2057;50.858;6.572;2023-04-08T02:41:59;42.17;;;24.40;;
4084;SDS011;2057;50.858;6.572;2023-04-08T02:44:25;41.10;;;26.30;;
4084;SDS011;2057;50.858;6.572;2023-04-08T02:46:51;42.90;;;25.60;;
4084;SDS011;2057;50.858;6.572;2023-04-08T02:49:16;50.10;;;26.13;;
4084;SDS011;2057;50.858;6.572;2023-04-08T02:51:41;52.40;;;26.17;;
4084;SDS011;2057;50.858;6.572;2023-04-08T02:54:07;47.03;;;26.40;;
4084;SDS011;2057;50.858;6.572;2023-04-08T02:56:32;43.00;;;23.90;;
4084;SDS011;2057;50.858;6.572;2023-04-08T02:58:57;47.20;;;26.00;;
4084;SDS011;2057;50.858;6.572;2023-04-08T03:01:23;50.00;;;26.30;;
4084;SDS011;2057;50.858;6.572;2023-04-08T03:03:48;42.83;;;23.77;;
4084;SDS011;2057;50.858;6.572;2023-04-08T03:06:14;45.90;;;25.37;;
4084;SDS011;2057;50.858;6.572;2023-04-08T03:08:42;55.57;;;27.40;;
4084;SDS011;2057;50.858;6.572;2023-04-08T03:11:07;62.53;;;24.97;;
4084;SDS011;2057;50.858;6.572;2023-04-08T03:13:36;53.00;;;25.97;;
4084;SDS011;2057;50.858;6.572;2023-04-08T03:16:01;46.97;;;27.03;;
4084;SDS011;2057;50.858;6.572;2023-04-08T03:18:27;54.83;;;27.50;;
4084;SDS011;2057;50.858;6.572;2023-04-08T03:20:52;47.20;;;27.53;;
4084;SDS011;2057;50.858;6.572;2023-04-08T03:23:17;66.17;;;27.30;;
4084;SDS011;2057;50.858;6.572;2023-04-08T03:25:43;44.27;;;26.07;;
4084;SDS011;2057;50.858;6.572;2023-04-08T03:28:08;48.70;;;26.27;;
4084;SDS011;2057;50.858;6.572;2023-04-08T03:30:33;61.00;;;27.93;;
4084;SDS011;2057;50.858;6.572;2023-04-08T03:32:59;56.67;;;25.07;;
4084;SDS011;2057;50.858;6.572;2023-04-08T03:35:26;53.40;;;27.13;;
4084;SDS011;2057;50.858;6.572;2023-04-08T03:37:52;71.23;;;31.57;;
4084;SDS011;2057;50.858;6.572;2023-04-08T03:40:19;51.83;;;26.37;;
4084;SDS011;2057;50.858;6.572;2023-04-08T03:42:44;46.13;;;27.10;;
4084;SDS011;2057;50.858;6.572;2023-04-08T03:45:09;65.87;;;28.90;;
4084;SDS011;2057;50.858;6.572;2023-04-08T03:47:35;44.23;;;25.07;;
4084;SDS011;2057;50.858;6.572;2023-04-08T03:50:00;50.53;;;27.67;;
4084;SDS011;2057;50.858;6.572;2023-04-08T03:52:25;68.10;;;28.70;;
4084;SDS011;2057;50.858;6.572;2023-04-08T03:54:51;55.93;;;27.40;;
4084;SDS011;2057;50.858;6.572;2023-04-08T03:57:16;48.77;;;26.17;;
4084;SDS011;2057;50.858;6.572;2023-04-08T03:59:41;63.37;;;27.07;;
4084;SDS011;2057;50.858;6.572;2023-04-08T04:02:07;63.53;;;29.70;;
4084;SDS011;2057;50.858;6.572;2023-04-08T04:04:32;64.90;;;29.90;;
4084;SDS011;2057;50.858;6.572;2023-04-08T04:06:58;70.43;;;27.07;;
4084;SDS011;2057;50.858;6.572;2023-04-08T04:09:23;47.73;;;27.77;;
4084;SDS011;2057;50.858;6.572;2023-04-08T04:11:49;47.90;;;27.70;;
4084;SDS011;2057;50.858;6.572;2023-04-08T04:14:14;50.63;;;28.67;;
4084;SDS011;2057;50.858;6.572;2023-04-08T04:16:40;62.03;;;27.80;;
4084;SDS011;2057;50.858;6.572;2023-04-08T04:19:05;70.03;;;29.73;;
4084;SDS011;2057;50.858;6.572;2023-04-08T04:21:31;56.53;;;27.23;;
4084;SDS011;2057;50.858;6.572;2023-04-08T04:23:57;69.77;;;28.07;;
4084;SDS011;2057;50.858;6.572;2023-04-08T04:26:22;50.87;;;27.63;;
4084;SDS011;2057;50.858;6.572;2023-04-08T04:28:47;48.03;;;25.63;;
4084;SDS011;2057;50.858;6.572;2023-04-08T04:31:19;61.03;;;28.03;;
4084;SDS011;2057;50.858;6.572;2023-04-08T04:33:46;53.70;;;30.40;;
4084;SDS011;2057;50.858;6.572;2023-04-08T04:36:12;41.13;;;26.17;;
4084;SDS011;2057;50.858;6.572;2023-04-08T04:38:37;50.93;;;28.60;;
4084;SDS011;2057;50.858;6.572;2023-04-08T04:41:03;61.67;;;29.40;;
4084;SDS011;2057;50.858;6.572;2023-04-08T04:43:28;64.00;;;27.30;;
4084;SDS011;2057;50.858;6.572;2023-04-08T04:45:54;53.97;;;26.00;;
4084;SDS011;2057;50.858;6.572;2023-04-08T04:48:20;56.22;;;26.05;;
4084;SDS011;2057;50.858;6.572;2023-04-08T04:50:53;59.60;;;26.97;;
4084;SDS011;2057;50.858;6.572;2023-04-08T04:53:19;52.43;;;26.93;;
4084;SDS011;2057;50.858;6.572;2023-04-08T04:55:45;59.90;;;27.47;;
4084;SDS011;2057;50.858;6.572;2023-04-08T04:58:10;52.37;;;23.60;;
4084;SDS011;2057;50.858;6.572;2023-04-08T05:00:35;56.83;;;27.70;;
4084;SDS011;2057;50.858;6.572;2023-04-08T05:03:00;46.73;;;25.77;;
4084;SDS011;2057;50.858;6.572;2023-04-08T05:05:26;44.87;;;25.67;;
4084;SDS011;2057;50.858;6.572;2023-04-08T05:07:51;65.47;;;25.40;;
4084;SDS011;2057;50.858;6.572;2023-04-08T05:10:16;54.83;;;26.93;;
4084;SDS011;2057;50.858;6.572;2023-04-08T05:12:42;41.43;;;24.57;;
4084;SDS011;2057;50.858;6.572;2023-04-08T05:15:07;48.43;;;25.67;;
4084;SDS011;2057;50.858;6.572;2023-04-08T05:17:33;44.50;;;24.93;;
4084;SDS011;2057;50.858;6.572;2023-04-08T05:19:58;50.30;;;24.60;;
4084;SDS011;2057;50.858;6.572;2023-04-08T05:22:23;58.67;;;25.07;;
4084;SDS011;2057;50.858;6.572;2023-04-08T05:24:49;38.53;;;22.00;;
4084;SDS011;2057;50.858;6.572;2023-04-08T05:27:14;50.57;;;24.07;;
4084;SDS011;2057;50.858;6.572;2023-04-08T05:29:39;44.07;;;22.13;;
4084;SDS011;2057;50.858;6.572;2023-04-08T05:32:05;42.50;;;23.10;;
4084;SDS011;2057;50.858;6.572;2023-04-08T05:34:31;53.53;;;26.90;;
4084;SDS011;2057;50.858;6.572;2023-04-08T05:36:56;52.90;;;25.07;;
4084;SDS011;2057;50.858;6.572;2023-04-08T05:39:21;55.77;;;28.10;;
4084;SDS011;2057;50.858;6.572;2023-04-08T05:41:47;51.60;;;29.67;;
4084;SDS011;2057;50.858;6.572;2023-04-08T05:44:12;65.70;;;30.03;;
4084;SDS011;2057;50.858;6.572;2023-04-08T05:46:40;58.73;;;30.40;;
4084;SDS011;2057;50.858;6.572;2023-04-08T05:49:05;73.43;;;31.00;;
4084;SDS011;2057;50.858;6.572;2023-04-08T05:51:31;76.83;;;33.57;;
4084;SDS011;2057;50.858;6.572;2023-04-08T05:53:56;64.83;;;35.97;;
4084;SDS011;2057;50.858;6.572;2023-04-08T05:56:21;89.97;;;37.20;;
4084;SDS011;2057;50.858;6.572;2023-04-08T05:58:47;81.57;;;35.70;;
4084;SDS011;2057;50.858;6.572;2023-04-08T06:01:12;66.47;;;32.97;;
4084;SDS011;2057;50.858;6.572;2023-04-08T06:03:38;73.03;;;35.27;;
4084;SDS011;2057;50.858;6.572;2023-04-08T06:06:03;87.63;;;35.80;;
4084;SDS011;2057;50.858;6.572;2023-04-08T06:08:33;63.50;;;32.07;;
4084;SDS011;2057;50.858;6.572;2023-04-08T06:10:58;78.47;;;38.60;;
4084;SDS011;2057;50.858;6.572;2023-04-08T06:13:23;74.20;;;36.50;;
4084;SDS011;2057;50.858;6.572;2023-04-08T06:15:49;81.23;;;35.50;;
4084;SDS011;2057;50.858;6.572;2023-04-08T06:18:15;77.97;;;35.00;;
4084;SDS011;2057;50.858;6.572;2023-04-08T06:20:41;89.67;;;38.00;;
4084;SDS011;2057;50.858;6.572;2023-04-08T06:23:06;81.77;;;36.77;;
4084;SDS011;2057;50.858;6.572;2023-04-08T06:25:31;80.67;;;37.67;;
4084;SDS011;2057;50.858;6.572;2023-04-08T06:27:57;95.53;;;38.53;;
4084;SDS011;2057;50.858;6.572;2023-04-08T06:30:22;112.57;;;42.53;;
4084;SDS011;2057;50.858;6.572;2023-04-08T06:32:47;119.60;;;42.30;;
4084;SDS011;2057;50.858;6.572;2023-04-08T06:35:13;107.93;;;40.97;;
4084;SDS011;2057;50.858;6.572;2023-04-08T06:37:38;88.17;;;42.60;;
4084;SDS011;2057;50.858;6.572;2023-04-08T06:40:04;87.40;;;39.80;;
4084;SDS011;2057;50.858;6.572;2023-04-08T06:42:30;105.20;;;41.40;;
4084;SDS011;2057;50.858;6.572;2023-04-08T06:44:55;89.43;;;38.47;;
4084;SDS011;2057;50.858;6.572;2023-04-08T06:47:22;101.03;;;36.23;;
4084;SDS011;2057;50.858;6.572;2023-04-08T06:49:47;95.93;;;39.17;;
4084;SDS011;2057;50.858;6.572;2023-04-08T06:52:13;94.60;;;40.17;;
4084;SDS011;2057;50.858;6.572;2023-04-08T06:54:38;109.33;;;40.17;;
4084;SDS011;2057;50.858;6.572;2023-04-08T06:57:03;86.77;;;39.50;;
4084;SDS011;2057;50.858;6.572;2023-04-08T06:59:29;108.97;;;41.43;;
4084;SDS011;2057;50.858;6.572;2023-04-08T07:01:54;108.07;;;42.93;;
4084;SDS011;2057;50.858;6.572;2023-04-08T07:06:53;112.70;;;42.00;;
4084;SDS011;2057;50.858;6.572;2023-04-08T07:09:19;92.90;;;39.07;;
4084;SDS011;2057;50.858;6.572;2023-04-08T07:11:44;95.20;;;42.67;;
4084;SDS011;2057;50.858;6.572;2023-04-08T07:14:10;85.23;;;39.53;;
4084;SDS011;2057;50.858;6.572;2023-04-08T07:16:36;93.07;;;42.77;;
4084;SDS011;2057;50.858;6.572;2023-04-08T07:19:01;96.30;;;43.00;;
4084;SDS011;2057;50.858;6.572;2023-04-08T07:21:26;124.33;;;45.33;;
4084;SDS011;2057;50.858;6.572;2023-04-08T07:23:52;99.50;;;44.63;;
4084;SDS011;2057;50.858;6.572;2023-04-08T07:26:17;104.13;;;46.20;;
4084;SDS011;2057;50.858;6.572;2023-04-08T07:28:43;116.37;;;45.90;;
4084;SDS011;2057;50.858;6.572;2023-04-08T07:31:12;103.47;;;43.70;;
4084;SDS011;2057;50.858;6.572;2023-04-08T07:33:41;109.73;;;44.73;;
4084;SDS011;2057;50.858;6.572;2023-04-08T07:36:12;112.47;;;43.60;;
4084;SDS011;2057;50.858;6.572;2023-04-08T07:38:38;92.07;;;41.60;;
4084;SDS011;2057;50.858;6.572;2023-04-08T07:41:04;100.20;;;45.10;;
4084;SDS011;2057;50.858;6.572;2023-04-08T07:43:30;106.80;;;45.00;;
4084;SDS011;2057;50.858;6.572;2023-04-08T07:45:59;102.03;;;44.07;;
4084;SDS011;2057;50.858;6.572;2023-04-08T07:48:28;90.90;;;40.80;;
4084;SDS011;2057;50.858;6.572;2023-04-08T07:50:54;108.23;;;43.83;;
4084;SDS011;2057;50.858;6.572;2023-04-08T07:53:20;102.17;;;42.93;;
4084;SDS011;2057;50.858;6.572;2023-04-08T07:55:47;93.27;;;43.03;;
4084;SDS011;2057;50.858;6.572;2023-04-08T07:58:12;98.17;;;42.47;;
4084;SDS011;2057;50.858;6.572;2023-04-08T08:00:38;71.57;;;37.40;;
4084;SDS011;2057;50.858;6.572;2023-04-08T08:03:04;76.33;;;39.63;;
4084;SDS011;2057;50.858;6.572;2023-04-08T08:05:30;89.07;;;41.07;;
4084;SDS011;2057;50.858;6.572;2023-04-08T08:07:55;88.87;;;38.70;;
4084;SDS011;2057;50.858;6.572;2023-04-08T08:10:20;90.23;;;38.67;;
4084;SDS011;2057;50.858;6.572;2023-04-08T08:12:46;84.20;;;40.50;;
4084;SDS011;2057;50.858;6.572;2023-04-08T08:15:11;86.30;;;38.33;;
4084;SDS011;2057;50.858;6.572;2023-04-08T08:17:37;69.63;;;38.90;;
4084;SDS011;2057;50.858;6.572;2023-04-08T08:20:02;83.33;;;39.13;;
4084;SDS011;2057;50.858;6.572;2023-04-08T08:22:28;76.50;;;37.80;;
4084;SDS011;2057;50.858;6.572;2023-04-08T08:24:57;77.23;;;39.80;;
4084;SDS011;2057;50.858;6.572;2023-04-08T08:27:22;70.73;;;40.60;;
4084;SDS011;2057;50.858;6.572;2023-04-08T08:29:48;65.87;;;36.70;;
4084;SDS011;2057;50.858;6.572;2023-04-08T08:32:13;73.03;;;37.03;;
4084;SDS011;2057;50.858;6.572;2023-04-08T08:34:39;95.67;;;47.50;;
4084;SDS011;2057;50.858;6.572;2023-04-08T08:37:04;88.73;;;44.23;;
4084;SDS011;2057;50.858;6.572;2023-04-08T08:39:29;85.17;;;43.30;;
4084;SDS011;2057;50.858;6.572;2023-04-08T08:41:55;81.63;;;42.03;;
4084;SDS011;2057;50.858;6.572;2023-04-08T08:44:21;76.70;;;42.37;;
4084;SDS011;2057;50.858;6.572;2023-04-08T08:46:46;82.90;;;42.43;;
4084;SDS011;2057;50.858;6.572;2023-04-08T08:49:12;85.93;;;41.40;;
4084;SDS011;2057;50.858;6.572;2023-04-08T08:51:41;86.30;;;41.17;;
4084;SDS011;2057;50.858;6.572;2023-04-08T08:54:13;88.47;;;42.37;;
4084;SDS011;2057;50.858;6.572;2023-04-08T08:56:39;79.23;;;43.00;;
4084;SDS011;2057;50.858;6.572;2023-04-08T08:59:06;71.70;;;40.40;;
4084;SDS011;2057;50.858;6.572;2023-04-08T09:01:35;69.60;;;34.80;;
4084;SDS011;2057;50.858;6.572;2023-04-08T09:04:14;66.30;;;35.73;;
4084;SDS011;2057;50.858;6.572;2023-04-08T09:06:44;67.20;;;37.07;;
4084;SDS011;2057;50.858;6.572;2023-04-08T09:09:11;61.10;;;37.37;;
4084;SDS011;2057;50.858;6.572;2023-04-08T09:11:46;70.43;;;39.10;;
4084;SDS011;2057;50.858;6.572;2023-04-08T09:16:42;62.83;;;36.90;;
4084;SDS011;2057;50.858;6.572;2023-04-08T09:19:08;65.83;;;35.57;;
4084;SDS011;2057;50.858;6.572;2023-04-08T09:21:35;67.20;;;38.97;;
4084;SDS011;2057;50.858;6.572;2023-04-08T09:24:01;78.30;;;44.23;;
4084;SDS011;2057;50.858;6.572;2023-04-08T09:26:27;66.30;;;42.10;;
4084;SDS011;2057;50.858;6.572;2023-04-08T09:28:59;67.60;;;40.87;;
4084;SDS011;2057;50.858;6.572;2023-04-08T09:31:27;69.37;;;43.23;;
4084;SDS011;2057;50.858;6.572;2023-04-08T09:33:55;83.13;;;44.73;;
4084;SDS011;2057;50.858;6.572;2023-04-08T09:36:26;85.90;;;45.27;;
4084;SDS011;2057;50.858;6.572;2023-04-08T09:38:52;81.17;;;46.63;;
4084;SDS011;2057;50.858;6.572;2023-04-08T09:41:21;83.93;;;45.00;;
4084;SDS011;2057;50.858;6.572;2023-04-08T09:43:50;82.10;;;46.93;;
4084;SDS011;2057;50.858;6.572;2023-04-08T09:46:24;75.80;;;43.20;;
4084;SDS011;2057;50.858;6.572;2023-04-08T09:51:46;82.53;;;48.63;;
4084;SDS011;2057;50.858;6.572;2023-04-08T09:54:16;85.33;;;47.83;;
4084;SDS011;2057;50.858;6.572;2023-04-08T09:56:48;86.03;;;47.07;;
4084;SDS011;2057;50.858;6.572;2023-04-08T09:59:20;83.83;;;48.47;;
4084;SDS011;2057;50.858;6.572;2023-04-08T10:01:54;90.30;;;46.07;;
4084;SDS011;2057;50.858;6.572;2023-04-08T10:04:24;90.10;;;49.03;;
4084;SDS011;2057;50.858;6.572;2023-04-08T10:06:53;85.40;;;44.73;;
4084;SDS011;2057;50.858;6.572;2023-04-08T10:09:21;90.47;;;47.87;;
4084;SDS011;2057;50.858;6.572;2023-04-08T10:11:47;86.67;;;46.40;;
4084;SDS011;2057;50.858;6.572;2023-04-08T10:14:14;90.07;;;45.10;;
4084;SDS011;2057;50.858;6.572;2023-04-08T10:16:39;86.53;;;44.27;;
4084;SDS011;2057;50.858;6.572;2023-04-08T10:22:03;89.43;;;46.50;;
4084;SDS011;2057;50.858;6.572;2023-04-08T10:27:42;78.13;;;43.90;;
4084;SDS011;2057;50.858;6.572;2023-04-08T10:32:50;82.77;;;47.80;;
4084;SDS011;2057;50.858;6.572;2023-04-08T10:35:27;89.53;;;46.77;;
4084;SDS011;2057;50.858;6.572;2023-04-08T10:37:54;96.20;;;48.53;;
4084;SDS011;2057;50.858;6.572;2023-04-08T10:40:19;82.07;;;45.70;;
4084;SDS011;2057;50.858;6.572;2023-04-08T10:42:45;87.37;;;45.83;;
4084;SDS011;2057;50.858;6.572;2023-04-08T10:45:15;80.50;;;45.70;;
4084;SDS011;2057;50.858;6.572;2023-04-08T10:47:41;83.70;;;45.60;;
4084;SDS011;2057;50.858;6.572;2023-04-08T10:50:13;74.43;;;44.30;;
4084;SDS011;2057;50.858;6.572;2023-04-08T10:52:46;100.90;;;45.47;;
4084;SDS011;2057;50.858;6.572;2023-04-08T10:55:12;82.93;;;45.50;;
4084;SDS011;2057;50.858;6.572;2023-04-08T10:57:37;89.47;;;49.97;;
4084;SDS011;2057;50.858;6.572;2023-04-08T11:00:06;82.33;;;44.87;;
4084;SDS011;2057;50.858;6.572;2023-04-08T11:02:41;87.40;;;47.70;;
4084;SDS011;2057;50.858;6.572;2023-04-08T11:05:08;80.47;;;46.83;;
4084;SDS011;2057;50.858;6.572;2023-04-08T11:07:38;83.13;;;48.97;;
4084;SDS011;2057;50.858;6.572;2023-04-08T11:10:09;95.63;;;51.67;;
4084;SDS011;2057;50.858;6.572;2023-04-08T11:12:35;82.47;;;46.90;;
4084;SDS011;2057;50.858;6.572;2023-04-08T11:15:02;82.50;;;49.53;;
4084;SDS011;2057;50.858;6.572;2023-04-08T11:17:28;85.10;;;48.20;;
4084;SDS011;2057;50.858;6.572;2023-04-08T11:19:54;83.93;;;46.17;;
4084;SDS011;2057;50.858;6.572;2023-04-08T11:22:20;85.30;;;47.90;;
4084;SDS011;2057;50.858;6.572;2023-04-08T11:24:47;75.47;;;44.73;;
4084;SDS011;2057;50.858;6.572;2023-04-08T11:27:13;157.50;;;50.20;;
4084;SDS011;2057;50.858;6.572;2023-04-08T11:29:39;78.20;;;46.70;;
4084;SDS011;2057;50.858;6.572;2023-04-08T11:32:06;80.90;;;46.07;;
4084;SDS011;2057;50.858;6.572;2023-04-08T11:34:32;81.67;;;47.43;;
4084;SDS011;2057;50.858;6.572;2023-04-08T11:37:01;81.50;;;46.70;;
4084;SDS011;2057;50.858;6.572;2023-04-08T11:39:26;83.43;;;47.77;;
4084;SDS011;2057;50.858;6.572;2023-04-08T11:41:51;76.77;;;45.10;;
4084;SDS011;2057;50.858;6.572;2023-04-08T11:44:17;77.90;;;43.90;;
4084;SDS011;2057;50.858;6.572;2023-04-08T11:46:50;73.10;;;45.60;;
4084;SDS011;2057;50.858;6.572;2023-04-08T11:49:19;73.00;;;43.67;;
4084;SDS011;2057;50.858;6.572;2023-04-08T11:51:54;68.93;;;40.93;;
4084;SDS011;2057;50.858;6.572;2023-04-08T11:54:30;67.73;;;40.30;;
4084;SDS011;2057;50.858;6.572;2023-04-08T11:56:56;67.63;;;40.23;;
4084;SDS011;2057;50.858;6.572;2023-04-08T11:59:23;74.93;;;38.90;;
4084;SDS011;2057;50.858;6.572;2023-04-08T12:01:51;73.73;;;42.83;;
4084;SDS011;2057;50.858;6.572;2023-04-08T12:04:17;67.47;;;38.83;;
4084;SDS011;2057;50.858;6.572;2023-04-08T12:06:42;69.47;;;41.07;;
4084;SDS011;2057;50.858;6.572;2023-04-08T12:09:10;61.90;;;37.83;;
4084;SDS011;2057;50.858;6.572;2023-04-08T12:11:36;56.13;;;36.60;;
4084;SDS011;2057;50.858;6.572;2023-04-08T12:14:02;45.40;;;32.10;;
4084;SDS011;2057;50.858;6.572;2023-04-08T12:16:27;45.03;;;30.70;;
4084;SDS011;2057;50.858;6.572;2023-04-08T12:18:52;48.07;;;31.43;;
4084;SDS011;2057;50.858;6.572;2023-04-08T12:21:18;42.07;;;28.07;;
4084;SDS011;2057;50.858;6.572;2023-04-08T12:23:43;40.53;;;24.43;;
4084;SDS011;2057;50.858;6.572;2023-04-08T12:26:10;31.07;;;22.77;;
4084;SDS011;2057;50.858;6.572;2023-04-08T12:28:37;28.80;;;21.97;;
4084;SDS011;2057;50.858;6.572;2023-04-08T12:31:02;29.83;;;21.53;;
4084;SDS011;2057;50.858;6.572;2023-04-08T12:33:28;23.53;;;18.20;;
4084;SDS011;2057;50.858;6.572;2023-04-08T12:35:54;26.77;;;19.73;;
4084;SDS011;2057;50.858;6.572;2023-04-08T12:38:19;30.23;;;19.83;;
4084;SDS011;2057;50.858;6.572;2023-04-08T12:40:45;27.13;;;19.73;;
4084;SDS011;2057;50.858;6.572;2023-04-08T12:43:10;23.73;;;18.67;;
4084;SDS011;2057;50.858;6.572;2023-04-08T12:45:36;26.97;;;19.40;;
4084;SDS011;2057;50.858;6.572;2023-04-08T12:48:02;30.60;;;20.67;;
4084;SDS011;2057;50.858;6.572;2023-04-08T12:50:27;32.60;;;19.90;;
4084;SDS011;2057;50.858;6.572;2023-04-08T12:53:04;25.53;;;18.27;;
4084;SDS011;2057;50.858;6.572;2023-04-08T12:55:29;27.00;;;19.87;;
4084;SDS011;2057;50.858;6.572;2023-04-08T12:57:54;31.97;;;17.67;;
4084;SDS011;2057;50.858;6.572;2023-04-08T13:00:20;25.70;;;18.43;;
4084;SDS011;2057;50.858;6.572;2023-04-08T13:02:45;29.30;;;19.63;;
4084;SDS011;2057;50.858;6.572;2023-04-08T13:05:11;28.27;;;18.93;;
4084;SDS011;2057;50.858;6.572;2023-04-08T13:07:38;25.90;;;20.37;;
4084;SDS011;2057;50.858;6.572;2023-04-08T13:10:04;33.77;;;20.30;;
4084;SDS011;2057;50.858;6.572;2023-04-08T13:12:31;31.17;;;22.50;;
4084;SDS011;2057;50.858;6.572;2023-04-08T13:14:56;28.63;;;20.60;;
4084;SDS011;2057;50.858;6.572;2023-04-08T13:17:22;31.10;;;20.60;;
4084;SDS011;2057;50.858;6.572;2023-04-08T13:19:48;28.03;;;19.83;;
4084;SDS011;2057;50.858;6.572;2023-04-08T13:22:14;32.50;;;21.63;;
4084;SDS011;2057;50.858;6.572;2023-04-08T13:24:39;31.93;;;22.00;;
4084;SDS011;2057;50.858;6.572;2023-04-08T13:27:05;33.27;;;19.57;;
4084;SDS011;2057;50.858;6.572;2023-04-08T13:29:30;31.53;;;21.80;;
4084;SDS011;2057;50.858;6.572;2023-04-08T13:31:55;28.97;;;19.13;;
4084;SDS011;2057;50.858;6.572;2023-04-08T13:34:21;38.43;;;21.50;;
4084;SDS011;2057;50.858;6.572;2023-04-08T13:36:46;31.07;;;22.33;;
4084;SDS011;2057;50.858;6.572;2023-04-08T13:39:11;30.20;;;20.13;;
4084;SDS011;2057;50.858;6.572;2023-04-08T13:41:37;32.73;;;21.67;;
4084;SDS011;2057;50.858;6.572;2023-04-08T13:44:02;32.67;;;19.27;;
4084;SDS011;2057;50.858;6.572;2023-04-08T13:46:28;34.43;;;20.83;;
4084;SDS011;2057;50.858;6.572;2023-04-08T13:48:53;36.07;;;21.57;;
4084;SDS011;2057;50.858;6.572;2023-04-08T13:51:18;29.57;;;20.17;;
4084;SDS011;2057;50.858;6.572;2023-04-08T13:53:44;28.73;;;20.20;;
4084;SDS011;2057;50.858;6.572;2023-04-08T13:56:09;34.67;;;22.23;;
4084;SDS011;2057;50.858;6.572;2023-04-08T13:58:35;30.90;;;22.63;;
4084;SDS011;2057;50.858;6.572;2023-04-08T14:01:00;31.47;;;22.97;;
4084;SDS011;2057;50.858;6.572;2023-04-08T14:03:26;35.80;;;23.80;;
4084;SDS011;2057;50.858;6.572;2023-04-08T14:05:51;31.87;;;23.33;;
4084;SDS011;2057;50.858;6.572;2023-04-08T14:08:17;33.57;;;20.77;;
4084;SDS011;2057;50.858;6.572;2023-04-08T14:10:49;34.47;;;20.50;;
4084;SDS011;2057;50.858;6.572;2023-04-08T14:13:15;31.60;;;20.53;;
4084;SDS011;2057;50.858;6.572;2023-04-08T14:15:41;30.37;;;21.53;;
4084;SDS011;2057;50.858;6.572;2023-04-08T14:18:06;30.43;;;22.20;;
4084;SDS011;2057;50.858;6.572;2023-04-08T14:20:31;28.13;;;20.80;;
4084;SDS011;2057;50.858;6.572;2023-04-08T14:22:57;33.13;;;20.40;;
4084;SDS011;2057;50.858;6.572;2023-04-08T14:25:22;39.37;;;24.47;;
4084;SDS011;2057;50.858;6.572;2023-04-08T14:27:48;36.03;;;25.57;;
4084;SDS011;2057;50.858;6.572;2023-04-08T14:30:13;40.23;;;26.00;;
4084;SDS011;2057;50.858;6.572;2023-04-08T14:32:38;42.70;;;29.50;;
4084;SDS011;2057;50.858;6.572;2023-04-08T14:35:04;44.73;;;27.70;;
4084;SDS011;2057;50.858;6.572;2023-04-08T14:37:30;49.33;;;29.33;;
4084;SDS011;2057;50.858;6.572;2023-04-08T14:39:55;42.20;;;26.80;;
4084;SDS011;2057;50.858;6.572;2023-04-08T14:42:20;47.20;;;28.50;;
4084;SDS011;2057;50.858;6.572;2023-04-08T14:44:46;46.47;;;29.57;;
4084;SDS011;2057;50.858;6.572;2023-04-08T14:47:11;70.27;;;30.90;;
4084;SDS011;2057;50.858;6.572;2023-04-08T14:49:37;44.57;;;28.90;;
4084;SDS011;2057;50.858;6.572;2023-04-08T14:52:02;62.17;;;29.90;;
4084;SDS011;2057;50.858;6.572;2023-04-08T14:54:28;43.13;;;29.00;;
4084;SDS011;2057;50.858;6.572;2023-04-08T14:56:53;44.83;;;28.00;;
4084;SDS011;2057;50.858;6.572;2023-04-08T14:59:18;42.90;;;28.57;;
4084;SDS011;2057;50.858;6.572;2023-04-08T15:01:44;46.27;;;29.27;;
4084;SDS011;2057;50.858;6.572;2023-04-08T15:04:09;47.50;;;28.30;;
4084;SDS011;2057;50.858;6.572;2023-04-08T15:06:35;43.73;;;27.00;;
4084;SDS011;2057;50.858;6.572;2023-04-08T15:09:02;38.67;;;26.73;;